Time;durP1;ratioP1;P1;durP2;ratioP2;P2;SDS_P1;SDS_P2;PMS_P1;PMS_P2;Temp;Humidity;BMP_temperature;BMP_pressure;BME280_temperature;BME280_humidity;BME280_pressure;Samples;Min_cycle;Max_cycle;Signal;HPM_P1;HPM_P2
2023/04/12 00:00:25;;;;;;;;;56.00;43.00;;;;;;;;5067344;29;10777;-66
2023/04/12 00:02:58;;;;;;;;;47.80;40.20;;;;;;;;5051216;29;8802;-66
2023/04/12 00:05:29;;;;;;;;;40.40;36.20;;;;;;;;5035674;29;8802;-67
2023/04/12 00:08:05;;;;;;;;;32.80;32.60;;;;;;;;5050385;29;8826;-66
2023/04/12 00:10:36;;;;;;;;;46.80;41.40;;;;;;;;5050865;29;9550;-67
2023/04/12 00:13:07;;;;;;;;;31.20;30.20;;;;;;;;5035800;29;8785;-66
2023/04/12 00:15:38;;;;;;;;;29.60;27.40;;;;;;;;5067583;29;8794;-67
2023/04/12 00:18:09;;;;;;;;;14.20;14.20;;;;;;;;5035241;29;8814;-67
2023/04/12 00:20:42;;;;;;;;;16.80;16.80;;;;;;;;5067246;29;8790;-67
2023/04/12 00:23:13;;;;;;;;;19.40;19.40;;;;;;;;5035229;29;8802;-67
2023/04/12 00:25:44;;;;;;;;;23.40;23.00;;;;;;;;5066797;29;8905;-66
2023/04/12 00:28:15;;;;;;;;;22.60;20.80;;;;;;;;5067327;29;8834;-66
2023/04/12 00:30:47;;;;;;;;;21.60;20.40;;;;;;;;5035209;29;8794;-66
2023/04/12 00:33:19;;;;;;;;;23.60;23.20;;;;;;;;5019464;29;8802;-66
2023/04/12 00:35:50;;;;;;;;;19.60;19.60;;;;;;;;5050743;29;8897;-65
2023/04/12 00:38:22;;;;;;;;;27.60;26.00;;;;;;;;5050799;29;9514;-65
2023/04/12 00:40:53;;;;;;;;;32.20;29.20;;;;;;;;5067344;29;8909;-66
2023/04/12 00:43:26;;;;;;;;;36.75;31.00;;;;;;;;5067173;29;9653;-65
2023/04/12 00:45:57;;;;;;;;;44.40;39.60;;;;;;;;5067141;29;11472;-66
2023/04/12 00:48:30;;;;;;;;;34.40;33.20;;;;;;;;5050033;29;8929;-65
2023/04/12 00:51:03;;;;;;;;;26.20;24.40;;;;;;;;5066674;29;8812;-65
2023/04/12 00:53:35;;;;;;;;;32.00;31.80;;;;;;;;5066379;29;8809;-66
2023/04/12 00:56:07;;;;;;;;;22.00;22.00;;;;;;;;5050342;29;8809;-65
2023/04/12 00:58:38;;;;;;;;;36.00;34.60;;;;;;;;5015234;29;8840;-66
2023/04/12 01:01:09;;;;;;;;;20.40;19.60;;;;;;;;5015222;29;8801;-66
2023/04/12 01:03:41;;;;;;;;;16.40;16.40;;;;;;;;5015055;29;8804;-66
2023/04/12 01:06:15;;;;;;;;;18.00;18.00;;;;;;;;5015316;29;8915;-66
2023/04/12 01:08:56;;;;;;;;;13.00;12.40;;;;;;;;5031952;29;8825;-65
2023/04/12 01:11:46;;;;;;;;;14.60;14.60;;;;;;;;5047119;29;8805;-66
2023/04/12 01:14:40;;;;;;;;;11.40;11.00;;;;;;;;5047993;29;8792;-66
2023/04/12 01:17:16;;;;;;;;;9.00;9.00;;;;;;;;5014873;29;9586;-66
2023/04/12 01:19:52;;;;;;;;;12.40;12.20;;;;;;;;5015569;29;8796;-66
2023/04/12 01:22:42;;;;;;;;;15.20;14.40;;;;;;;;5030736;29;9575;-66
2023/04/12 01:25:42;;;;;;;;;15.60;15.60;;;;;;;;5014484;29;8811;-66
2023/04/12 01:28:14;;;;;;;;;13.00;13.00;;;;;;;;4951446;29;8823;-66
2023/04/12 01:30:46;;;;;;;;;15.80;14.00;;;;;;;;5015314;29;9578;-66
2023/04/12 01:33:30;;;;;;;;;18.20;18.20;;;;;;;;5260954;27;13452;-64
2023/04/12 01:36:04;;;;;;;;;20.80;20.60;;;;;;;;5242830;28;9582;-64
2023/04/12 01:38:35;;;;;;;;;17.60;17.00;;;;;;;;5243536;28;8937;-65
2023/04/12 01:41:24;;;;;;;;;20.40;20.40;;;;;;;;5242631;28;8827;-66
2023/04/12 01:43:55;;;;;;;;;21.20;21.20;;;;;;;;5242220;28;9508;-65
2023/04/12 01:46:26;;;;;;;;;18.60;18.60;;;;;;;;5224932;28;8787;-65
2023/04/12 01:48:57;;;;;;;;;17.60;17.60;;;;;;;;5222579;28;8761;-68
2023/04/12 01:51:28;;;;;;;;;20.75;20.75;;;;;;;;5220074;28;8808;-65
2023/04/12 01:54:03;;;;;;;;;24.50;20.50;;;;;;;;5221342;28;9710;-65
2023/04/12 01:56:35;;;;;;;;;18.80;18.80;;;;;;;;5221101;28;11496;-66
2023/04/12 01:59:06;;;;;;;;;24.00;23.40;;;;;;;;5221178;28;8780;-66
2023/04/12 02:01:37;;;;;;;;;17.60;16.60;;;;;;;;5204715;28;8820;-66
2023/04/12 02:04:10;;;;;;;;;31.40;30.60;;;;;;;;5222220;28;8791;-66
2023/04/12 02:06:41;;;;;;;;;33.00;30.80;;;;;;;;5221086;28;8776;-66
2023/04/12 02:09:13;;;;;;;;;28.60;28.60;;;;;;;;5225800;28;8874;-68
2023/04/12 02:11:47;;;;;;;;;33.50;31.50;;;;;;;;5241501;28;8813;-65
2023/04/12 02:14:37;;;;;;;;;22.20;21.80;;;;;;;;5241603;28;11509;-65
2023/04/12 02:17:08;;;;;;;;;17.60;17.60;;;;;;;;5241454;28;8766;-67
2023/04/12 02:19:58;;;;;;;;;22.80;22.80;;;;;;;;5242798;28;8757;-67
2023/04/12 02:22:29;;;;;;;;;18.60;18.60;;;;;;;;5213036;28;8823;-68
2023/04/12 02:25:01;;;;;;;;;15.40;15.40;;;;;;;;5222743;28;8808;-68
2023/04/12 02:27:32;;;;;;;;;17.40;16.20;;;;;;;;5221920;28;8808;-68
2023/04/12 02:30:21;;;;;;;;;9.20;9.20;;;;;;;;5218206;28;8819;-69
2023/04/12 02:32:57;;;;;;;;;8.20;8.20;;;;;;;;5206235;28;8846;-68
2023/04/12 02:35:32;;;;;;;;;12.60;12.40;;;;;;;;5223612;28;9622;-66
2023/04/12 02:38:12;;;;;;;;;13.00;13.00;;;;;;;;5238170;28;8837;-69
2023/04/12 02:40:45;;;;;;;;;17.40;16.80;;;;;;;;5218991;28;8821;-69
2023/04/12 02:43:34;;;;;;;;;17.40;17.40;;;;;;;;5224219;28;8820;-69
2023/04/12 02:46:12;;;;;;;;;26.60;26.60;;;;;;;;5210545;28;8883;-69
2023/04/12 02:48:50;;;;;;;;;65.20;51.20;;;;;;;;5206013;28;9504;-66
2023/04/12 02:51:23;;;;;;;;;55.80;48.20;;;;;;;;5206420;28;8816;-68
2023/04/12 02:53:55;;;;;;;;;62.40;52.60;;;;;;;;5206444;28;8776;-68
2023/04/12 02:56:29;;;;;;;;;65.00;53.20;;;;;;;;5198076;28;8805;-68
2023/04/12 02:59:07;;;;;;;;;66.00;51.80;;;;;;;;5219189;28;8786;-68
2023/04/12 03:02:02;;;;;;;;;70.00;56.00;;;;;;;;5224939;28;9543;-68
2023/04/12 03:04:38;;;;;;;;;58.20;48.60;;;;;;;;5217856;28;8828;-68
2023/04/12 03:07:14;;;;;;;;;49.40;43.40;;;;;;;;5190527;28;9491;-68
2023/04/12 03:09:52;;;;;;;;;25.80;25.60;;;;;;;;5210999;28;8802;-68
2023/04/12 03:12:42;;;;;;;;;33.40;31.20;;;;;;;;5224790;28;8861;-69
2023/04/12 03:15:23;;;;;;;;;29.60;29.20;;;;;;;;5226439;28;8906;-68
2023/04/12 03:17:56;;;;;;;;;24.60;24.60;;;;;;;;5210448;28;8798;-68
2023/04/12 03:20:32;;;;;;;;;24.00;22.80;;;;;;;;5227022;28;8872;-68
2023/04/12 03:23:12;;;;;;;;;18.40;18.20;;;;;;;;5215315;28;8840;-68
2023/04/12 03:25:47;;;;;;;;;12.00;12.00;;;;;;;;5207050;28;8785;-68
2023/04/12 03:28:34;;;;;;;;;14.00;14.00;;;;;;;;5221669;28;8907;-68
2023/04/12 03:31:09;;;;;;;;;8.60;8.00;;;;;;;;5204305;28;8796;-68
2023/04/12 03:33:46;;;;;;;;;12.00;12.00;;;;;;;;5227744;28;8891;-68
2023/04/12 03:36:28;;;;;;;;;10.40;10.40;;;;;;;;5227498;28;8793;-68
2023/04/12 03:39:07;;;;;;;;;10.00;9.40;;;;;;;;5226913;28;8774;-68
2023/04/12 03:41:40;;;;;;;;;11.20;11.20;;;;;;;;5226131;28;8800;-68
2023/04/12 03:44:12;;;;;;;;;15.80;15.60;;;;;;;;5226354;28;8793;-68
2023/04/12 03:46:43;;;;;;;;;17.40;16.80;;;;;;;;5227101;28;8789;-68
2023/04/12 03:49:15;;;;;;;;;15.40;14.40;;;;;;;;5226121;28;8789;-68
2023/04/12 03:51:49;;;;;;;;;14.00;14.00;;;;;;;;5209301;28;8835;-76
2023/04/12 03:54:39;;;;;;;;;12.60;11.20;;;;;;;;5211080;28;8786;-75
2023/04/12 03:57:15;;;;;;;;;12.20;12.20;;;;;;;;5209285;28;8855;-75
2023/04/12 03:59:51;;;;;;;;;14.40;13.00;;;;;;;;5209233;28;8923;-75
2023/04/12 04:02:30;;;;;;;;;8.60;8.60;;;;;;;;5239202;28;9609;-75
2023/04/12 04:05:02;;;;;;;;;13.20;13.20;;;;;;;;5246431;28;9580;-75
2023/04/12 04:07:36;;;;;;;;;10.40;10.20;;;;;;;;5225475;28;9663;-75
2023/04/12 04:10:08;;;;;;;;;13.80;13.80;;;;;;;;5225765;28;8793;-76
2023/04/12 04:12:43;;;;;;;;;9.80;9.80;;;;;;;;5226044;28;8837;-76
2023/04/12 04:15:16;;;;;;;;;9.80;9.00;;;;;;;;5225677;28;8801;-76
2023/04/12 04:17:48;;;;;;;;;8.60;8.60;;;;;;;;5225591;28;8979;-76
2023/04/12 04:20:26;;;;;;;;;20.60;19.00;;;;;;;;5208918;28;8821;-76
2023/04/12 04:22:57;;;;;;;;;10.40;10.40;;;;;;;;5209036;28;9056;-76
2023/04/12 04:25:30;;;;;;;;;8.80;8.80;;;;;;;;5228404;28;8791;-76
2023/04/12 04:28:08;;;;;;;;;13.00;13.00;;;;;;;;5229990;28;8783;-76
2023/04/12 04:30:39;;;;;;;;;7.00;7.00;;;;;;;;5245804;28;8829;-76
2023/04/12 04:33:17;;;;;;;;;6.80;6.80;;;;;;;;5229923;28;8900;-75
2023/04/12 04:35:51;;;;;;;;;5.60;5.60;;;;;;;;5228006;28;8791;-75
2023/04/12 04:38:27;;;;;;;;;5.40;5.40;;;;;;;;5246181;28;8775;-75
2023/04/12 04:41:08;;;;;;;;;10.20;9.80;;;;;;;;5230362;28;8779;-76
2023/04/12 04:43:54;;;;;;;;;6.20;6.20;;;;;;;;5231278;28;9486;-76
2023/04/12 04:46:29;;;;;;;;;5.60;5.60;;;;;;;;5224665;28;8786;-75
2023/04/12 04:49:01;;;;;;;;;8.00;7.00;;;;;;;;5208332;28;8836;-75
2023/04/12 04:51:36;;;;;;;;;8.60;8.60;;;;;;;;5225843;28;8809;-75
2023/04/12 04:54:09;;;;;;;;;5.60;5.60;;;;;;;;5225159;28;8908;-76
2023/04/12 04:56:45;;;;;;;;;6.00;6.00;;;;;;;;5225453;28;8777;-78
2023/04/12 04:59:19;;;;;;;;;6.00;5.40;;;;;;;;5223662;28;8791;-78
2023/04/12 05:01:53;;;;;;;;;8.40;8.40;;;;;;;;5208072;28;9497;-76
2023/04/12 05:04:25;;;;;;;;;9.80;9.80;;;;;;;;5239217;28;8791;-78
2023/04/12 05:06:58;;;;;;;;;6.40;6.00;;;;;;;;5243296;28;8826;-78
2023/04/12 05:09:31;;;;;;;;;6.00;6.00;;;;;;;;5210825;28;8787;-77
2023/04/12 05:12:07;;;;;;;;;5.80;5.40;;;;;;;;5227101;28;8842;-77
2023/04/12 05:14:42;;;;;;;;;4.20;4.20;;;;;;;;5244149;28;8771;-77
2023/04/12 05:17:17;;;;;;;;;4.40;4.40;;;;;;;;5206547;28;8968;-77
2023/04/12 05:19:55;;;;;;;;;4.00;4.00;;;;;;;;5213675;28;8809;-76
2023/04/12 05:22:36;;;;;;;;;5.00;5.00;;;;;;;;5222973;28;9524;-75
2023/04/12 05:25:08;;;;;;;;;0.80;0.80;;;;;;;;5214407;28;8921;-76
2023/04/12 05:27:49;;;;;;;;;2.00;2.00;;;;;;;;5226411;28;8795;-76
2023/04/12 05:30:22;;;;;;;;;2.25;2.25;;;;;;;;5210470;28;8806;-77
2023/04/12 05:32:55;;;;;;;;;2.00;2.00;;;;;;;;5238004;28;8833;-76
2023/04/12 05:35:31;;;;;;;;;4.00;4.00;;;;;;;;5206498;28;8820;-70
2023/04/12 05:38:03;;;;;;;;;2.00;2.00;;;;;;;;5206738;28;9610;-70
2023/04/12 05:40:35;;;;;;;;;4.20;4.20;;;;;;;;5226105;28;8803;-70
2023/04/12 05:43:24;;;;;;;;;3.00;3.00;;;;;;;;5234611;28;9518;-70
2023/04/12 05:45:55;;;;;;;;;2.40;2.40;;;;;;;;5245112;28;8798;-69
2023/04/12 05:48:27;;;;;;;;;3.00;3.00;;;;;;;;5235839;28;8803;-68
2023/04/12 05:51:01;;;;;;;;;2.50;2.50;;;;;;;;5238242;28;9541;-70
2023/04/12 05:53:32;;;;;;;;;7.50;6.50;;;;;;;;5222879;28;9551;-70
2023/04/12 05:56:09;;;;;;;;;4.00;4.00;;;;;;;;5238930;28;8807;-70
2023/04/12 05:58:40;;;;;;;;;2.75;2.75;;;;;;;;5243945;28;8806;-68
2023/04/12 06:01:15;;;;;;;;;3.25;2.75;;;;;;;;5216303;28;8845;-68
2023/04/12 06:03:46;;;;;;;;;1.00;1.00;;;;;;;;5218813;28;8797;-68
2023/04/12 06:06:17;;;;;;;;;1.75;1.75;;;;;;;;5231103;28;8790;-70
2023/04/12 06:08:50;;;;;;;;;3.00;3.00;;;;;;;;5207791;28;8955;-68
2023/04/12 06:11:39;;;;;;;;;6.50;6.00;;;;;;;;5225309;28;8951;-69
2023/04/12 06:14:11;;;;;;;;;2.00;2.00;;;;;;;;5223813;28;8769;-69
2023/04/12 06:16:42;;;;;;;;;4.33;4.33;;;;;;;;5223568;28;9611;-69
2023/04/12 06:19:13;;;;;;;;;4.33;4.33;;;;;;;;5229441;28;11436;-69
2023/04/12 06:21:44;;;;;;;;;4.00;4.00;;;;;;;;5239841;28;11454;-71
2023/04/12 06:24:15;;;;;;;;;9.40;9.40;;;;;;;;5243830;28;8787;-69
2023/04/12 06:27:05;;;;;;;;;3.25;2.25;;;;;;;;5243302;28;9560;-69
2023/04/12 06:29:36;;;;;;;;;5.00;5.00;;;;;;;;5227714;28;8927;-69
2023/04/12 06:32:07;;;;;;;;;4.40;4.40;;;;;;;;5229540;28;9608;-70
2023/04/12 06:34:39;;;;;;;;;4.25;4.25;;;;;;;;5230367;28;9625;-70
2023/04/12 06:37:16;;;;;;;;;4.50;4.50;;;;;;;;5211155;28;8802;-70
2023/04/12 06:39:47;;;;;;;;;2.00;1.25;;;;;;;;5227649;28;9679;-70
2023/04/12 06:42:18;;;;;;;;;2.00;2.00;;;;;;;;5227430;28;8920;-70
2023/04/12 06:44:48;;;;;;;;;8.00;8.00;;;;;;;;5227381;28;8793;-70
2023/04/12 06:47:21;;;;;;;;;4.33;4.33;;;;;;;;5229721;28;8856;-70
2023/04/12 06:49:54;;;;;;;;;5.00;5.00;;;;;;;;5214266;28;11448;-69
2023/04/12 06:52:43;;;;;;;;;5.00;4.75;;;;;;;;5242481;28;9552;-70
2023/04/12 06:55:14;;;;;;;;;1.50;1.50;;;;;;;;5211087;28;8794;-70
2023/04/12 06:58:04;;;;;;;;;4.00;4.00;;;;;;;;5231798;28;8795;-69
2023/04/12 07:00:36;;;;;;;;;3.50;3.50;;;;;;;;5242782;28;8807;-70
2023/04/12 07:03:08;;;;;;;;;1.50;1.50;;;;;;;;5214455;28;8803;-70
2023/04/12 07:05:58;;;;;;;;;2.00;2.00;;;;;;;;5228120;28;8786;-70
2023/04/12 07:08:33;;;;;;;;;3.25;2.50;;;;;;;;5232689;28;8813;-70
2023/04/12 07:11:05;;;;;;;;;3.00;3.00;;;;;;;;5225892;28;8806;-69
2023/04/12 07:13:35;;;;;;;;;3.00;3.00;;;;;;;;5216630;28;8793;-69
2023/04/12 07:16:07;;;;;;;;;2.00;2.00;;;;;;;;5210074;28;8928;-69
2023/04/12 07:18:38;;;;;;;;;2.00;2.00;;;;;;;;5235003;28;8920;-69
2023/04/12 07:21:13;;;;;;;;;2.75;0.75;;;;;;;;5237588;28;9363;-69
2023/04/12 07:23:46;;;;;;;;;3.25;3.25;;;;;;;;5213116;28;8939;-69
2023/04/12 07:26:18;;;;;;;;;1.50;1.50;;;;;;;;5228924;28;8861;-70
2023/04/12 07:28:49;;;;;;;;;3.00;3.00;;;;;;;;5230295;28;8787;-69
2023/04/12 07:31:21;;;;;;;;;3.00;3.00;;;;;;;;5234234;28;9567;-69
2023/04/12 07:33:52;;;;;;;;;2.00;2.00;;;;;;;;5227553;28;9617;-69
2023/04/12 07:36:23;;;;;;;;;1.00;1.00;;;;;;;;5227729;28;8818;-69
2023/04/12 07:38:54;;;;;;;;;2.00;2.00;;;;;;;;5226002;28;8793;-69
2023/04/12 07:41:25;;;;;;;;;1.00;1.00;;;;;;;;5224548;28;8804;-69
2023/04/12 07:43:56;;;;;;;;;2.00;2.00;;;;;;;;5225640;28;8790;-69
2023/04/12 07:46:27;;;;;;;;;4.00;4.00;;;;;;;;5224281;28;8805;-70
2023/04/12 07:48:58;;;;;;;;;2.00;2.00;;;;;;;;5224164;28;8786;-69
2023/04/12 07:51:30;;;;;;;;;4.00;4.00;;;;;;;;5234727;28;8849;-69
2023/04/12 07:54:01;;;;;;;;;4.25;4.25;;;;;;;;5244879;28;8926;-68
2023/04/12 07:56:33;;;;;;;;;2.00;2.00;;;;;;;;5244912;28;8795;-68
2023/04/12 07:59:22;;;;;;;;;2.00;2.00;;;;;;;;5230065;28;8809;-68
2023/04/12 08:01:53;;;;;;;;;1.00;1.00;;;;;;;;5233627;28;8850;-69
2023/04/12 08:04:24;;;;;;;;;1.00;1.00;;;;;;;;5217232;28;8787;-68
2023/04/12 08:06:55;;;;;;;;;3.00;3.00;;;;;;;;5229759;28;8797;-68
2023/04/12 08:09:45;;;;;;;;;2.75;2.75;;;;;;;;5230556;28;8789;-68
2023/04/12 08:12:16;;;;;;;;;4.00;4.00;;;;;;;;5226740;28;8809;-68
2023/04/12 08:14:47;;;;;;;;;2.00;2.00;;;;;;;;5242049;28;8794;-68
2023/04/12 08:17:18;;;;;;;;;3.00;3.00;;;;;;;;5245335;28;8807;-68
2023/04/12 08:19:49;;;;;;;;;2.00;2.00;;;;;;;;5247278;28;8920;-68
2023/04/12 08:22:38;;;;;;;;;2.75;2.75;;;;;;;;5236428;28;8811;-68
2023/04/12 08:25:09;;;;;;;;;1.75;1.75;;;;;;;;5246645;28;8811;-68
2023/04/12 08:27:41;;;;;;;;;4.50;4.00;;;;;;;;5246086;28;8779;-68
2023/04/12 08:30:12;;;;;;;;;1.75;1.75;;;;;;;;5213193;28;8780;-67
2023/04/12 08:32:43;;;;;;;;;17.00;17.00;;;;;;;;5242255;28;8851;-68
2023/04/12 08:35:14;;;;;;;;;8.00;8.00;;;;;;;;5230174;28;8905;-67
2023/04/12 08:38:06;;;;;;;;;3.25;3.25;;;;;;;;5244638;28;8876;-67
2023/04/12 08:40:37;;;;;;;;;0.00;0.00;;;;;;;;5245206;28;8774;-67
2023/04/12 08:43:10;;;;;;;;;2.00;2.00;;;;;;;;5229415;28;8897;-67
2023/04/12 08:45:41;;;;;;;;;3.00;3.00;;;;;;;;5246633;28;8767;-67
2023/04/12 08:48:12;;;;;;;;;1.00;1.00;;;;;;;;5244981;28;9494;-67
2023/04/12 08:51:02;;;;;;;;;2.50;2.50;;;;;;;;5232545;28;8945;-67
2023/04/12 08:53:33;;;;;;;;;1.00;1.00;;;;;;;;5224673;28;8842;-74
2023/04/12 08:56:10;;;;;;;;;3.50;3.50;;;;;;;;5201800;28;8802;-75
2023/04/12 08:58:44;;;;;;;;;1.75;1.75;;;;;;;;5225464;28;8785;-75
2023/04/12 09:01:15;;;;;;;;;3.25;3.25;;;;;;;;5191877;28;8790;-75
2023/04/12 09:03:47;;;;;;;;;3.75;3.75;;;;;;;;5209119;28;8817;-75
2023/04/12 09:06:18;;;;;;;;;2.00;2.00;;;;;;;;5224690;28;8855;-75
2023/04/12 09:08:50;;;;;;;;;2.00;1.75;;;;;;;;5192002;28;8980;-75
2023/04/12 09:11:23;;;;;;;;;0.75;0.75;;;;;;;;5224716;28;8792;-75
2023/04/12 09:13:54;;;;;;;;;1.50;1.50;;;;;;;;5224613;28;8812;-75
2023/04/12 09:16:34;;;;;;;;;2.75;2.75;;;;;;;;5208392;28;8808;-74
2023/04/12 09:19:06;;;;;;;;;0.00;0.00;;;;;;;;5191979;28;8928;-75
2023/04/12 09:21:50;;;;;;;;;11.75;11.75;;;;;;;;5192084;28;8795;-75
2023/04/12 09:24:24;;;;;;;;;1.00;1.00;;;;;;;;5207824;28;8813;-75
2023/04/12 09:27:14;;;;;;;;;1.75;1.75;;;;;;;;5227401;28;8903;-75
2023/04/12 09:29:50;;;;;;;;;5.00;5.00;;;;;;;;5224224;28;8821;-75
2023/04/12 09:32:27;;;;;;;;;3.25;3.25;;;;;;;;5223657;28;8872;-75
2023/04/12 09:35:04;;;;;;;;;2.00;2.00;;;;;;;;5234648;28;8793;-75
2023/04/12 09:37:35;;;;;;;;;6.75;6.75;;;;;;;;5211327;28;8864;-74
2023/04/12 09:40:07;;;;;;;;;4.75;4.75;;;;;;;;5207694;28;8790;-75
2023/04/12 09:42:52;;;;;;;;;7.25;7.25;;;;;;;;5208032;28;8835;-75
2023/04/12 09:45:24;;;;;;;;;4.75;4.75;;;;;;;;5233379;28;8802;-76
2023/04/12 09:47:55;;;;;;;;;0.00;0.00;;;;;;;;5212015;28;8780;-75
2023/04/12 09:50:27;;;;;;;;;1.00;1.00;;;;;;;;5212087;28;8768;-75
2023/04/12 09:53:00;;;;;;;;;2.50;2.50;;;;;;;;5245207;28;8949;-75
2023/04/12 09:55:31;;;;;;;;;1.00;1.00;;;;;;;;5250247;28;8799;-76
2023/04/12 09:58:03;;;;;;;;;2.00;2.00;;;;;;;;5232593;28;8816;-74
2023/04/12 10:00:35;;;;;;;;;2.00;2.00;;;;;;;;5216092;28;8782;-75
2023/04/12 10:03:26;;;;;;;;;1.50;1.50;;;;;;;;5226367;28;8817;-75
2023/04/12 10:05:57;;;;;;;;;1.00;1.00;;;;;;;;5211629;28;8824;-75
2023/04/12 10:08:29;;;;;;;;;2.25;2.25;;;;;;;;5211823;28;8915;-74
2023/04/12 10:11:01;;;;;;;;;9.00;9.00;;;;;;;;5228268;28;8925;-78
2023/04/12 10:13:32;;;;;;;;;4.00;4.00;;;;;;;;5178650;28;8825;-76
2023/04/12 10:16:08;;;;;;;;;4.25;4.25;;;;;;;;5204770;28;8834;-76
2023/04/12 10:19:03;;;;;;;;;2.00;2.00;;;;;;;;5228349;28;8785;-71
2023/04/12 10:21:34;;;;;;;;;2.25;2.25;;;;;;;;5211548;28;8870;-76
2023/04/12 10:24:06;;;;;;;;;3.00;3.00;;;;;;;;5227836;28;8793;-78
2023/04/12 10:26:40;;;;;;;;;14.25;14.25;;;;;;;;5194796;28;8920;-81
2023/04/12 10:29:21;;;;;;;;;4.00;4.00;;;;;;;;5245792;28;8854;-78
2023/04/12 10:31:53;;;;;;;;;8.00;8.00;;;;;;;;5213880;28;8803;-68
2023/04/12 10:34:43;;;;;;;;;2.00;2.00;;;;;;;;5227040;28;9063;-66
2023/04/12 10:37:14;;;;;;;;;3.50;3.25;;;;;;;;5228645;28;8953;-71
2023/04/12 10:39:51;;;;;;;;;3.00;3.00;;;;;;;;5229092;28;8915;-72
2023/04/12 10:42:23;;;;;;;;;7.00;7.00;;;;;;;;5229286;28;8789;-75
2023/04/12 10:44:55;;;;;;;;;2.75;2.75;;;;;;;;5234054;28;8909;-74
2023/04/12 10:48:00;;;;;;;;;2.00;2.00;;;;;;;;5246884;28;8787;-74
2023/04/12 10:50:32;;;;;;;;;5.75;5.75;;;;;;;;5187570;28;8817;-74
2023/04/12 10:53:09;;;;;;;;;7.50;7.50;;;;;;;;5209169;28;9564;-74
2023/04/12 10:55:44;;;;;;;;;3.50;3.50;;;;;;;;5225515;28;9608;-73
2023/04/12 10:58:36;;;;;;;;;4.00;4.00;;;;;;;;5241597;28;8782;-73
2023/04/12 11:01:10;;;;;;;;;1.00;1.00;;;;;;;;5226297;28;9657;-74
2023/04/12 11:04:00;;;;;;;;;17.25;17.25;;;;;;;;5225220;28;8816;-74
2023/04/12 11:06:52;;;;;;;;;5.00;5.00;;;;;;;;5241141;28;9604;-75
2023/04/12 11:09:43;;;;;;;;;6.75;6.75;;;;;;;;5240654;28;8891;-75
2023/04/12 11:12:34;;;;;;;;;3.00;3.00;;;;;;;;5233553;28;8845;-74
2023/04/12 11:15:05;;;;;;;;;23.00;22.80;;;;;;;;5227772;28;8809;-74
2023/04/12 11:17:56;;;;;;;;;2.00;2.00;;;;;;;;5228353;28;8816;-74
2023/04/12 11:20:27;;;;;;;;;6.00;6.00;;;;;;;;5227299;28;8861;-75
2023/04/12 11:22:58;;;;;;;;;2.00;2.00;;;;;;;;5227817;28;8797;-74
2023/04/12 11:25:30;;;;;;;;;3.25;3.25;;;;;;;;5226435;28;8770;-75
2023/04/12 11:28:01;;;;;;;;;2.00;2.00;;;;;;;;5226806;28;8798;-74
2023/04/12 11:30:33;;;;;;;;;1.00;1.00;;;;;;;;5226558;28;8804;-74
2023/04/12 11:33:04;;;;;;;;;2.00;2.00;;;;;;;;5232546;28;8815;-74
2023/04/12 11:35:36;;;;;;;;;3.00;3.00;;;;;;;;5246824;28;8803;-73
2023/04/12 11:38:07;;;;;;;;;15.50;15.25;;;;;;;;5246709;28;9482;-73
2023/04/12 11:40:37;;;;;;;;;12.00;12.00;;;;;;;;5246815;28;8801;-73
2023/04/12 11:43:27;;;;;;;;;10.00;10.00;;;;;;;;5244765;28;8801;-74
2023/04/12 11:45:58;;;;;;;;;3.00;3.00;;;;;;;;5227223;28;9608;-74
2023/04/12 11:48:31;;;;;;;;;7.50;7.50;;;;;;;;5227601;28;8790;-74
2023/04/12 11:51:17;;;;;;;;;5.50;5.50;;;;;;;;5227383;28;8910;-73
2023/04/12 11:53:51;;;;;;;;;7.50;6.75;;;;;;;;5227480;28;9528;-75
2023/04/12 11:56:22;;;;;;;;;9.00;8.50;;;;;;;;5209230;28;8801;-73
2023/04/12 11:58:53;;;;;;;;;2.00;2.00;;;;;;;;5225932;28;8801;-74
2023/04/12 12:01:26;;;;;;;;;2.33;2.33;;;;;;;;5227043;28;8809;-74
2023/04/12 12:03:58;;;;;;;;;4.50;4.50;;;;;;;;5236115;28;9555;-75
2023/04/12 12:06:30;;;;;;;;;4.75;4.75;;;;;;;;5247144;28;8779;-73
2023/04/12 12:09:02;;;;;;;;;6.50;6.50;;;;;;;;5246148;28;8779;-73
2023/04/12 12:11:33;;;;;;;;;3.00;3.00;;;;;;;;5228766;28;8932;-73
2023/04/12 12:14:06;;;;;;;;;10.33;9.67;;;;;;;;5226563;28;8948;-73
2023/04/12 12:16:40;;;;;;;;;6.00;6.00;;;;;;;;5225758;28;8781;-73
2023/04/12 12:19:11;;;;;;;;;14.00;13.75;;;;;;;;5225035;28;8944;-73
2023/04/12 12:21:41;;;;;;;;;7.33;7.33;;;;;;;;5225220;28;8928;-73
2023/04/12 12:24:13;;;;;;;;;7.67;7.67;;;;;;;;5227547;28;10420;-74
2023/04/12 12:26:44;;;;;;;;;11.25;10.50;;;;;;;;5226111;28;11468;-73
2023/04/12 12:29:16;;;;;;;;;8.75;8.75;;;;;;;;5226782;28;8810;-72
2023/04/12 12:31:47;;;;;;;;;5.00;5.00;;;;;;;;5226057;28;8841;-73
2023/04/12 12:34:18;;;;;;;;;5.50;5.50;;;;;;;;5192941;28;8817;-74
2023/04/12 12:36:54;;;;;;;;;7.25;7.25;;;;;;;;5225437;28;8786;-73
2023/04/12 12:39:25;;;;;;;;;16.25;16.25;;;;;;;;5234711;28;8900;-75
2023/04/12 12:41:56;;;;;;;;;2.50;2.50;;;;;;;;5225984;28;9660;-73
2023/04/12 12:44:27;;;;;;;;;10.50;10.50;;;;;;;;5241997;28;8896;-76
2023/04/12 12:47:00;;;;;;;;;3.00;3.00;;;;;;;;5263402;28;8789;-76
2023/04/12 12:49:49;;;;;;;;;6.25;6.25;;;;;;;;5267482;28;11578;-76
2023/04/12 12:52:20;;;;;;;;;6.75;6.75;;;;;;;;5246064;28;8803;-77
2023/04/12 12:54:51;;;;;;;;;10.33;10.33;;;;;;;;5246696;28;9584;-76
2023/04/12 12:57:22;;;;;;;;;5.00;5.00;;;;;;;;5228757;28;8775;-77
2023/04/12 13:00:12;;;;;;;;;5.00;5.00;;;;;;;;5246273;28;9890;-76
2023/04/12 13:02:43;;;;;;;;;5.50;5.00;;;;;;;;5228772;28;9533;-75
2023/04/12 13:05:32;;;;;;;;;3.00;3.00;;;;;;;;5246774;28;8784;-75
2023/04/12 13:08:03;;;;;;;;;4.50;4.50;;;;;;;;5232747;28;8810;-73
2023/04/12 13:10:34;;;;;;;;;10.00;10.00;;;;;;;;5224711;28;8848;-76
2023/04/12 13:13:05;;;;;;;;;10.00;10.00;;;;;;;;5225994;28;8829;-75
2023/04/12 13:15:36;;;;;;;;;5.00;5.00;;;;;;;;5225672;28;9527;-75
2023/04/12 13:18:26;;;;;;;;;15.50;14.50;;;;;;;;5238074;28;8790;-76
2023/04/12 13:20:57;;;;;;;;;12.00;11.50;;;;;;;;5244575;28;8823;-78
2023/04/12 13:23:27;;;;;;;;;6.33;6.33;;;;;;;;5244710;28;8815;-76
2023/04/12 13:25:58;;;;;;;;;13.33;12.67;;;;;;;;5245201;28;10455;-78
2023/04/12 13:28:30;;;;;;;;;7.00;7.00;;;;;;;;5228224;28;9474;-77
2023/04/12 13:31:02;;;;;;;;;9.00;9.00;;;;;;;;5245196;28;8775;-74
2023/04/12 13:33:33;;;;;;;;;5.00;5.00;;;;;;;;5242675;28;9565;-75
2023/04/12 13:36:04;;;;;;;;;8.00;8.00;;;;;;;;5245684;28;8787;-85
2023/04/12 13:38:35;;;;;;;;;8.00;8.00;;;;;;;;5228213;28;11354;-80
2023/04/12 13:41:06;;;;;;;;;7.67;7.67;;;;;;;;5228268;28;8787;-75
2023/04/12 13:43:37;;;;;;;;;2.00;2.00;;;;;;;;5244913;28;8783;-74
2023/04/12 13:46:08;;;;;;;;;2.33;2.33;;;;;;;;5244830;28;8801;-74
2023/04/12 13:48:38;;;;;;;;;6.00;6.00;;;;;;;;5228882;28;8789;-73
2023/04/12 13:51:10;;;;;;;;;7.00;7.00;;;;;;;;5225132;28;8790;-73
2023/04/12 13:53:41;;;;;;;;;8.25;8.25;;;;;;;;5213751;28;8971;-74
2023/04/12 13:56:11;;;;;;;;;11.00;11.00;;;;;;;;5223974;28;8789;-76
2023/04/12 13:58:43;;;;;;;;;8.00;8.00;;;;;;;;5237709;28;11493;-76
2023/04/12 14:01:32;;;;;;;;;11.00;11.00;;;;;;;;5244228;28;12103;-75
2023/04/12 14:04:03;;;;;;;;;7.67;7.67;;;;;;;;5244339;28;8791;-75
2023/04/12 14:06:35;;;;;;;;;9.25;9.25;;;;;;;;5223731;28;9027;-76
2023/04/12 14:09:06;;;;;;;;;10.75;10.75;;;;;;;;5207144;28;8814;-75
2023/04/12 14:11:44;;;;;;;;;9.67;9.33;;;;;;;;5224120;28;8799;-74
2023/04/12 14:14:15;;;;;;;;;10.75;10.75;;;;;;;;5223674;28;11382;-74
2023/04/12 14:16:47;;;;;;;;;51.20;43.40;;;;;;;;5225122;28;8855;-74
2023/04/12 14:19:19;;;;;;;;;21.80;21.80;;;;;;;;5228003;28;8909;-76
2023/04/12 14:21:50;;;;;;;;;17.00;17.00;;;;;;;;5244390;28;8817;-75
2023/04/12 14:24:21;;;;;;;;;10.75;10.75;;;;;;;;5245115;28;8813;-74
2023/04/12 14:26:53;;;;;;;;;7.75;7.50;;;;;;;;5235235;28;8831;-75
2023/04/12 14:29:24;;;;;;;;;6.50;6.00;;;;;;;;5206919;28;8794;-73
2023/04/12 14:31:55;;;;;;;;;6.00;6.00;;;;;;;;5224536;28;8845;-73
2023/04/12 14:34:26;;;;;;;;;10.50;10.50;;;;;;;;5206809;28;8820;-73
2023/04/12 14:36:57;;;;;;;;;8.00;7.67;;;;;;;;5222213;28;8809;-73
2023/04/12 14:39:29;;;;;;;;;17.00;15.25;;;;;;;;5228608;28;8871;-73
2023/04/12 14:42:01;;;;;;;;;14.25;14.25;;;;;;;;5248175;28;8783;-74
2023/04/12 14:44:32;;;;;;;;;7.25;7.25;;;;;;;;5239268;28;8781;-75
2023/04/12 14:47:03;;;;;;;;;6.50;6.50;;;;;;;;5210324;28;9544;-72
2023/04/12 14:49:34;;;;;;;;;7.50;7.50;;;;;;;;5210894;28;9497;-74
2023/04/12 14:52:05;;;;;;;;;21.33;21.33;;;;;;;;5226972;28;8816;-75
2023/04/12 14:54:36;;;;;;;;;25.75;25.25;;;;;;;;5240422;28;9490;-74
2023/04/12 14:57:07;;;;;;;;;33.50;31.25;;;;;;;;5248270;28;8775;-75
2023/04/12 14:59:57;;;;;;;;;31.00;30.00;;;;;;;;5232710;28;8786;-76
2023/04/12 15:02:28;;;;;;;;;68.75;53.75;;;;;;;;5210448;28;8806;-76
2023/04/12 15:05:02;;;;;;;;;29.60;29.60;;;;;;;;5228120;28;9113;-75
2023/04/12 15:07:34;;;;;;;;;60.40;49.00;;;;;;;;5227651;28;8933;-76
2023/04/12 15:10:05;;;;;;;;;49.60;41.80;;;;;;;;5226143;28;8826;-75
2023/04/12 15:12:36;;;;;;;;;20.20;19.40;;;;;;;;5210239;28;9484;-76
2023/04/12 15:15:07;;;;;;;;;11.33;11.33;;;;;;;;5228914;28;8790;-77
2023/04/12 15:17:38;;;;;;;;;8.50;8.00;;;;;;;;5248096;28;11618;-79
2023/04/12 15:20:28;;;;;;;;;19.20;16.80;;;;;;;;5241108;28;8802;-73
2023/04/12 15:22:58;;;;;;;;;20.33;18.00;;;;;;;;5236410;28;8839;-78
2023/04/12 15:25:29;;;;;;;;;15.00;15.00;;;;;;;;5228564;28;11107;-76
2023/04/12 15:28:01;;;;;;;;;24.60;24.60;;;;;;;;5212144;28;8842;-75
2023/04/12 15:30:32;;;;;;;;;18.60;18.60;;;;;;;;5250116;28;8798;-73